createdAt,value
2024-02-17T00:01:16.783Z,12.37
2024-02-17T00:03:44.510Z,12.33
2024-02-17T00:06:12.334Z,12.24
2024-02-17T00:08:40.048Z,12.04
2024-02-17T00:11:07.659Z,11.85
2024-02-17T00:13:35.270Z,11.78
2024-02-17T00:16:03.860Z,11.77
2024-02-17T00:18:31.542Z,11.70
2024-02-17T00:21:04.841Z,11.62
2024-02-17T00:23:33.030Z,11.60
2024-02-17T00:26:00.718Z,11.63
2024-02-17T00:28:29.786Z,11.73
2024-02-17T00:30:57.697Z,11.83
2024-02-17T00:41:10.595Z,11.94
2024-02-17T00:43:38.172Z,11.82
2024-02-17T00:46:05.824Z,11.76
2024-02-17T00:48:33.869Z,11.69
2024-02-17T00:51:08.862Z,11.60
2024-02-17T01:01:22.876Z,11.67
2024-02-17T01:03:55.192Z,11.62
2024-02-17T01:06:23.762Z,11.63
2024-02-17T01:08:51.353Z,11.61
2024-02-17T01:11:20.326Z,11.67
2024-02-17T01:13:48.125Z,11.80
2024-02-17T01:16:15.781Z,11.88
2024-02-17T01:18:44.079Z,11.91
2024-02-17T01:21:12.495Z,11.97
2024-02-17T01:23:40.096Z,12.06
2024-02-17T01:26:08.498Z,12.14
2024-02-17T01:28:36.268Z,12.18
2024-02-17T01:31:03.729Z,12.28
2024-02-17T01:33:31.228Z,12.40
2024-02-17T01:35:58.958Z,12.48
2024-02-17T01:38:26.560Z,12.55
2024-02-17T01:48:32.277Z,12.51
2024-02-17T01:58:38.252Z,12.35
2024-02-17T02:01:06.610Z,12.27
2024-02-17T02:03:35.198Z,12.19
2024-02-17T02:06:04.038Z,12.11
2024-02-17T02:16:11.967Z,12.07
2024-02-17T02:18:39.770Z,11.96
2024-02-17T02:21:07.496Z,11.99
2024-02-17T02:23:36.560Z,12.09
2024-02-17T02:26:04.439Z,12.19
2024-02-17T02:28:31.993Z,12.28
2024-02-17T02:31:00.732Z,12.33
2024-02-17T02:40:12.078Z,12.47
2024-02-17T02:50:18.940Z,12.86
2024-02-17T02:52:46.524Z,12.91
2024-02-17T02:55:14.059Z,12.97
2024-02-17T02:57:41.743Z,13.00
2024-02-17T03:00:10.203Z,13.02
2024-02-17T03:02:37.884Z,13.01
2024-02-17T03:05:05.435Z,13.02
2024-02-17T03:07:33.028Z,13.09
2024-02-17T03:10:00.703Z,13.14
2024-02-17T03:12:28.182Z,13.15
2024-02-17T03:14:55.782Z,13.11
2024-02-17T03:17:23.443Z,13.04
2024-02-17T03:19:53.139Z,12.98
2024-02-17T03:22:20.919Z,12.97
2024-02-17T03:24:48.560Z,12.96
2024-02-17T03:27:16.398Z,12.97
2024-02-17T03:29:44.046Z,13.03
2024-02-17T03:32:11.686Z,13.06
2024-02-17T03:34:40.920Z,13.05
2024-02-17T03:37:08.772Z,12.97
2024-02-17T03:39:36.481Z,12.95
2024-02-17T03:49:50.238Z,13.07
2024-02-17T03:52:18.685Z,13.02
2024-02-17T03:54:46.400Z,12.98
2024-02-17T03:57:15.215Z,12.94
2024-02-17T03:59:42.737Z,12.88
2024-02-17T04:02:10.298Z,12.85
2024-02-17T04:04:37.905Z,12.86
2024-02-17T04:07:05.683Z,12.91
2024-02-17T04:09:33.404Z,12.94
2024-02-17T04:12:01.124Z,12.93
2024-02-17T04:14:28.918Z,12.99
2024-02-17T04:24:16.395Z,13.14
2024-02-17T04:26:43.978Z,13.12
2024-02-17T04:29:17.001Z,13.11
2024-02-17T04:31:44.792Z,13.05
2024-02-17T04:34:12.640Z,12.96
2024-02-17T04:36:43.859Z,12.94
2024-02-17T04:39:13.733Z,12.98
2024-02-17T04:41:41.382Z,13.03
2024-02-17T04:51:39.743Z,12.96
2024-02-17T04:54:08.154Z,12.92
2024-02-17T04:56:35.593Z,12.89
2024-02-17T04:59:03.122Z,12.87
2024-02-17T05:01:31.279Z,12.88
2024-02-17T05:03:59.026Z,12.90
2024-02-17T05:06:26.786Z,12.91
2024-02-17T05:08:54.424Z,12.87
2024-02-17T05:11:22.350Z,12.83
2024-02-17T05:13:49.943Z,12.81
2024-02-17T05:16:17.535Z,12.79
2024-02-17T05:18:45.941Z,12.78
2024-02-17T05:21:18.313Z,12.78
2024-02-17T05:23:46.129Z,12.82
2024-02-17T05:26:13.501Z,12.86
2024-02-17T05:28:41.060Z,12.90
2024-02-17T05:31:25.159Z,12.90
2024-02-17T05:33:53.057Z,12.86
2024-02-17T05:36:20.814Z,12.80
2024-02-17T05:38:48.358Z,12.73
2024-02-17T05:41:15.952Z,12.69
2024-02-17T05:43:43.417Z,12.68
2024-02-17T05:46:11.651Z,12.70
2024-02-17T05:48:39.379Z,12.74
2024-02-17T05:51:07.015Z,12.78
2024-02-17T05:53:34.556Z,12.76
2024-02-17T05:56:02.010Z,12.75
2024-02-17T05:58:29.641Z,12.75
2024-02-17T06:01:01.991Z,12.72
2024-02-17T06:03:30.308Z,12.73
2024-02-17T06:05:58.019Z,12.71
2024-02-17T06:16:08.404Z,12.88
2024-02-17T06:18:55.032Z,12.83
2024-02-17T06:21:23.647Z,12.80
2024-02-17T06:23:53.107Z,12.77
2024-02-17T06:27:05.712Z,11.37
2024-02-17T06:29:33.385Z,12.51
2024-02-17T06:32:01.389Z,12.66
2024-02-17T06:34:29.159Z,12.71
2024-02-17T06:43:57.970Z,12.87
2024-02-17T06:46:26.574Z,12.83
2024-02-17T06:48:55.121Z,12.84
2024-02-17T06:51:24.145Z,12.85
2024-02-17T06:53:51.869Z,12.84
2024-02-17T06:56:19.356Z,12.87
2024-02-17T06:58:46.915Z,12.92
2024-02-17T07:01:14.896Z,12.98
2024-02-17T07:03:42.493Z,12.99
2024-02-17T07:06:10.642Z,12.97
2024-02-17T07:16:19.810Z,13.02
2024-02-17T07:18:47.863Z,13.02
2024-02-17T07:21:15.588Z,13.06
2024-02-17T07:23:43.219Z,13.08
2024-02-17T07:26:10.777Z,13.08
2024-02-17T07:28:39.681Z,13.06
2024-02-17T07:31:07.682Z,13.01
2024-02-17T07:33:35.392Z,12.98
2024-02-17T07:36:03.241Z,12.97
2024-02-17T07:38:31.546Z,12.98
2024-02-17T07:48:38.394Z,13.20
2024-02-17T07:51:06.267Z,13.21
2024-02-17T08:01:36.938Z,13.34
2024-02-17T08:04:04.038Z,13.35
2024-02-17T08:06:31.062Z,13.34
2024-02-17T08:08:57.984Z,13.35
2024-02-17T08:11:24.823Z,13.40
2024-02-17T08:13:51.677Z,13.43
2024-02-17T08:16:18.445Z,13.41
2024-02-17T08:18:46.559Z,13.38
2024-02-17T08:21:13.779Z,13.38
2024-02-17T08:23:44.307Z,13.38
2024-02-17T08:26:17.049Z,13.38
2024-02-17T08:28:44.188Z,13.38
2024-02-17T08:31:10.959Z,13.40
2024-02-17T08:33:37.851Z,13.41
2024-02-17T08:36:04.958Z,13.45
2024-02-17T08:38:31.730Z,13.52
2024-02-17T08:40:58.465Z,13.58
2024-02-17T08:43:25.370Z,13.59
2024-02-17T08:45:52.893Z,13.60
2024-02-17T08:48:20.044Z,13.59
2024-02-17T08:50:47.004Z,13.56
2024-02-17T08:53:13.701Z,13.59
2024-02-17T08:55:40.450Z,13.63
2024-02-17T08:58:07.170Z,13.67
2024-02-17T09:00:36.975Z,13.72
2024-02-17T09:03:03.922Z,13.76
2024-02-17T09:05:30.866Z,13.81
2024-02-17T09:07:57.576Z,13.90
2024-02-17T09:10:24.555Z,14.00
2024-02-17T09:12:51.998Z,14.07
2024-02-17T09:15:19.605Z,14.15
2024-02-17T09:17:47.921Z,14.22
2024-02-17T09:20:16.280Z,14.26
2024-02-17T09:22:43.198Z,14.27
2024-02-17T09:25:10.120Z,14.28
2024-02-17T09:27:37.019Z,14.32
2024-02-17T09:30:05.079Z,14.33
2024-02-17T09:32:32.281Z,14.35
2024-02-17T09:34:59.212Z,14.37
2024-02-17T09:37:26.253Z,14.41
2024-02-17T09:39:53.344Z,14.44
2024-02-17T09:42:20.197Z,14.46
2024-02-17T09:44:51.170Z,14.48
2024-02-17T09:47:17.851Z,14.49
2024-02-17T09:49:44.749Z,14.50
2024-02-17T09:52:11.617Z,14.51
2024-02-17T09:54:38.696Z,14.55
2024-02-17T09:57:06.272Z,14.58
2024-02-17T09:59:33.032Z,14.56
2024-02-17T10:02:00.572Z,14.55
2024-02-17T10:04:27.539Z,14.54
2024-02-17T10:07:01.368Z,14.54
2024-02-17T10:09:30.666Z,14.59
2024-02-17T10:11:59.200Z,14.61
2024-02-17T10:14:28.030Z,14.61
2024-02-17T10:17:00.683Z,14.58
2024-02-17T10:19:29.686Z,14.57
2024-02-17T10:21:56.800Z,14.55
2024-02-17T10:24:23.763Z,14.59
2024-02-17T10:26:52.289Z,14.64
2024-02-17T10:29:19.114Z,14.67
2024-02-17T10:31:49.133Z,14.72
2024-02-17T10:34:16.684Z,14.70
2024-02-17T10:36:43.918Z,14.68
2024-02-17T10:39:13.645Z,14.68
2024-02-17T10:41:40.499Z,14.67
2024-02-17T10:44:07.550Z,14.67
2024-02-17T10:46:37.480Z,14.63
2024-02-17T10:49:40.381Z,14.61
2024-02-17T10:52:09.451Z,14.62
2024-02-17T10:54:57.174Z,14.63
2024-02-17T10:57:24.959Z,14.66
2024-02-17T10:59:54.883Z,14.68
2024-02-17T11:02:26.833Z,14.71
2024-02-17T11:04:53.520Z,14.77
2024-02-17T11:07:20.479Z,14.81
2024-02-17T11:09:47.292Z,14.86
2024-02-17T11:12:29.794Z,14.86
2024-02-17T11:15:14.906Z,14.85
2024-02-17T11:17:58.785Z,14.83
2024-02-17T11:20:26.596Z,14.83
2024-02-17T11:22:57.498Z,14.85
2024-02-17T11:25:39.706Z,14.88
2024-02-17T11:28:20.299Z,14.88
2024-02-17T11:30:51.554Z,14.84
2024-02-17T11:33:34.050Z,14.82
2024-02-17T11:36:04.939Z,14.75
2024-02-17T11:38:32.116Z,14.67
2024-02-17T11:41:02.139Z,14.64
2024-02-17T11:43:30.755Z,14.66
2024-02-17T11:45:58.214Z,14.69
2024-02-17T11:48:29.363Z,14.72
2024-02-17T11:51:13.161Z,14.73
2024-02-17T11:53:41.166Z,14.70
2024-02-17T11:56:11.255Z,14.64
2024-02-17T11:58:38.440Z,14.62
2024-02-17T12:01:05.277Z,14.59
2024-02-17T12:03:32.691Z,14.55
2024-02-17T12:06:03.271Z,14.49
2024-02-17T12:08:31.418Z,14.47
2024-02-17T12:10:58.451Z,14.47
2024-02-17T12:13:25.350Z,14.47
2024-02-17T12:15:52.166Z,14.52
2024-02-17T12:18:19.333Z,14.56
2024-02-17T12:20:49.291Z,14.55
2024-02-17T12:23:18.120Z,14.50
2024-02-17T12:25:44.925Z,14.45
2024-02-17T12:28:11.573Z,14.42
2024-02-17T12:30:49.168Z,14.39
2024-02-17T12:33:21.614Z,14.33
2024-02-17T12:35:49.233Z,14.30
2024-02-17T12:38:21.452Z,14.31
2024-02-17T12:40:48.844Z,14.28
2024-02-17T12:43:34.685Z,14.27
2024-02-17T12:46:18.466Z,14.29
2024-02-17T12:48:52.797Z,14.30
2024-02-17T12:51:21.007Z,14.27
2024-02-17T12:53:48.346Z,14.27
2024-02-17T12:56:16.120Z,14.26
2024-02-17T12:58:43.786Z,14.25
2024-02-17T13:01:11.338Z,14.24
2024-02-17T13:03:38.462Z,14.20
2024-02-17T13:06:07.392Z,14.19
2024-02-17T13:08:35.046Z,14.16
2024-02-17T13:11:04.288Z,14.10
2024-02-17T13:13:31.582Z,14.08
2024-02-17T13:15:58.576Z,14.06
2024-02-17T13:18:25.762Z,14.02
2024-02-17T13:20:52.757Z,14.00
2024-02-17T13:23:19.743Z,13.94
2024-02-17T13:25:46.640Z,13.92
2024-02-17T13:28:13.807Z,13.89
2024-02-17T13:30:40.962Z,13.87
2024-02-17T13:33:07.713Z,13.85
2024-02-17T13:35:34.662Z,13.84
2024-02-17T13:38:13.649Z,13.84
2024-02-17T13:40:48.652Z,13.85
2024-02-17T13:43:15.364Z,13.88
2024-02-17T13:45:47.706Z,13.90
2024-02-17T13:48:14.582Z,13.90
2024-02-17T13:50:41.528Z,13.91
2024-02-17T13:53:08.348Z,13.92
2024-02-17T13:55:35.964Z,13.91
2024-02-17T13:58:03.369Z,13.89
2024-02-17T14:00:30.455Z,13.89
2024-02-17T14:02:57.411Z,13.87
2024-02-17T14:05:25.317Z,13.83
2024-02-17T14:07:52.301Z,13.82
2024-02-17T14:10:19.454Z,13.86
2024-02-17T14:12:46.260Z,13.89
2024-02-17T14:15:12.857Z,13.91
2024-02-17T14:17:39.782Z,13.91
2024-02-17T14:20:09.938Z,13.91
2024-02-17T14:22:37.135Z,13.88
2024-02-17T14:25:04.481Z,13.82
2024-02-17T14:27:33.712Z,13.78
2024-02-17T14:30:00.561Z,13.80
2024-02-17T14:32:27.335Z,13.86
2024-02-17T14:34:54.527Z,13.90
2024-02-17T14:37:21.604Z,13.91
2024-02-17T14:39:48.445Z,13.91
2024-02-17T14:42:16.140Z,13.90
2024-02-17T14:44:43.954Z,13.87
2024-02-17T14:47:10.820Z,13.86
2024-02-17T14:49:37.988Z,13.82
2024-02-17T14:52:05.379Z,13.79
2024-02-17T14:54:32.116Z,13.82
2024-02-17T14:56:58.957Z,13.81
2024-02-17T14:59:25.649Z,13.87
2024-02-17T15:01:52.697Z,13.87
2024-02-17T15:04:19.751Z,13.84
2024-02-17T15:06:46.862Z,13.82
2024-02-17T15:09:13.875Z,13.80
2024-02-17T15:11:40.980Z,13.82
2024-02-17T15:14:07.981Z,13.83
2024-02-17T15:24:50.861Z,13.97
2024-02-17T15:27:18.422Z,13.97
2024-02-17T15:29:46.032Z,13.99
2024-02-17T15:32:12.816Z,13.99
2024-02-17T15:34:39.813Z,13.95
2024-02-17T15:37:09.961Z,13.93
2024-02-17T15:39:37.287Z,13.95
2024-02-17T15:42:04.887Z,14.01
2024-02-17T15:44:37.551Z,14.03
2024-02-17T15:47:05.618Z,13.99
2024-02-17T15:49:32.432Z,13.92
2024-02-17T15:52:01.346Z,13.87
2024-02-17T15:54:28.757Z,13.83
2024-02-17T15:56:55.624Z,13.82
2024-02-17T15:59:22.950Z,13.81
2024-02-17T16:01:49.746Z,13.83
2024-02-17T16:04:16.847Z,13.85
2024-02-17T16:06:44.310Z,13.87
2024-02-17T16:09:11.336Z,13.89
2024-02-17T16:11:38.278Z,13.89
2024-02-17T16:14:05.109Z,13.90
2024-02-17T16:16:31.859Z,13.89
2024-02-17T16:18:59.251Z,13.87
2024-02-17T16:21:27.405Z,13.86
2024-02-17T16:23:56.474Z,13.88
2024-02-17T16:26:25.274Z,13.95
2024-02-17T16:28:52.114Z,14.01
2024-02-17T16:31:18.979Z,14.00
2024-02-17T16:33:47.827Z,13.99
2024-02-17T16:36:14.823Z,13.99
2024-02-17T16:38:41.566Z,13.96
2024-02-17T16:41:09.520Z,13.93
2024-02-17T16:43:36.587Z,13.93
2024-02-17T16:46:04.282Z,13.94
2024-02-17T16:48:31.762Z,13.97
2024-02-17T16:50:58.960Z,14.04
2024-02-17T16:53:25.774Z,14.05
2024-02-17T16:55:52.447Z,14.03
2024-02-17T16:58:19.389Z,14.03
2024-02-17T17:00:46.203Z,14.04
2024-02-17T17:03:13.072Z,14.01
2024-02-17T17:05:40.279Z,14.01
2024-02-17T17:08:07.539Z,14.04
2024-02-17T17:10:34.514Z,14.06
2024-02-17T17:13:01.200Z,14.11
2024-02-17T17:15:29.110Z,14.14
2024-02-17T17:17:55.904Z,14.15
2024-02-17T17:20:23.902Z,14.12
2024-02-17T17:22:51.207Z,14.12
2024-02-17T17:25:18.177Z,14.11
2024-02-17T17:27:45.168Z,14.13
2024-02-17T17:30:13.778Z,14.16
2024-02-17T17:32:41.521Z,14.19
2024-02-17T17:35:09.735Z,14.27
2024-02-17T17:37:36.746Z,14.27
2024-02-17T17:40:05.766Z,14.25
2024-02-17T17:42:33.295Z,14.23
2024-02-17T17:45:00.396Z,14.21
2024-02-17T17:47:33.370Z,14.19
2024-02-17T17:50:00.171Z,14.18
2024-02-17T17:52:27.422Z,14.21
2024-02-17T17:54:54.401Z,14.25
2024-02-17T17:57:22.501Z,14.29
2024-02-17T17:59:50.191Z,14.30
2024-02-17T18:02:17.074Z,14.29
2024-02-17T18:04:44.180Z,14.28
2024-02-17T18:07:11.293Z,14.24
2024-02-17T18:09:38.069Z,14.25
2024-02-17T18:12:05.618Z,14.27
2024-02-17T18:14:34.982Z,14.27
2024-02-17T18:17:02.047Z,14.29
2024-02-17T18:19:29.057Z,14.36
2024-02-17T18:21:56.596Z,14.39
2024-02-17T18:24:23.689Z,14.44
2024-02-17T18:26:50.578Z,14.42
2024-02-17T18:29:17.380Z,14.41
2024-02-17T18:31:44.422Z,14.38
2024-02-17T18:34:11.401Z,14.36
2024-02-17T18:36:38.466Z,14.34
2024-02-17T18:39:05.382Z,14.31
2024-02-17T18:41:32.486Z,14.33
2024-02-17T18:45:23.071Z,13.05
2024-02-17T18:47:51.217Z,14.20
2024-02-17T18:50:19.052Z,14.37
2024-02-17T18:52:46.746Z,14.36
2024-02-17T18:55:14.324Z,14.37
2024-02-17T18:57:42.094Z,14.39
2024-02-17T19:00:10.338Z,14.39
2024-02-17T19:02:38.231Z,14.43
2024-02-17T19:05:06.955Z,14.44
2024-02-17T19:07:34.565Z,14.48
2024-02-17T19:10:02.520Z,14.48
2024-02-17T19:12:30.262Z,14.45
2024-02-17T19:14:57.887Z,14.41
2024-02-17T19:17:25.515Z,14.39
2024-02-17T19:19:53.189Z,14.37
2024-02-17T19:22:21.022Z,14.38
2024-02-17T19:24:48.799Z,14.40
2024-02-17T19:27:17.396Z,14.47
2024-02-17T19:29:45.183Z,14.53
2024-02-17T19:32:12.836Z,14.56
2024-02-17T19:34:40.986Z,14.57
2024-02-17T19:37:08.841Z,14.59
2024-02-17T19:39:36.858Z,14.56
2024-02-17T19:42:05.075Z,14.56
2024-02-17T19:44:32.794Z,14.55
2024-02-17T19:47:03.377Z,14.54
2024-02-17T19:49:32.713Z,14.59
2024-02-17T19:52:00.639Z,14.66
2024-02-17T19:54:28.390Z,14.72
2024-02-17T19:56:55.921Z,14.73
2024-02-17T19:59:23.586Z,14.75
2024-02-17T20:01:52.633Z,14.76
2024-02-17T20:04:20.574Z,14.82
2024-02-17T20:06:48.379Z,14.89
2024-02-17T20:09:16.276Z,15.02
2024-02-17T20:11:44.056Z,15.17
2024-02-17T20:14:11.824Z,15.33
2024-02-17T20:16:39.488Z,15.45
2024-02-17T20:19:07.407Z,15.54
2024-02-17T20:21:38.409Z,15.61
2024-02-17T20:24:06.756Z,15.65
2024-02-17T20:26:34.474Z,15.64
2024-02-17T20:29:02.438Z,15.64
2024-02-17T20:31:29.995Z,15.66
2024-02-17T20:34:00.446Z,15.64
2024-02-17T20:36:28.535Z,15.63
2024-02-17T20:38:56.458Z,15.59
2024-02-17T20:41:24.200Z,15.60
2024-02-17T20:43:51.969Z,15.63
2024-02-17T20:46:19.571Z,15.65
2024-02-17T20:48:47.200Z,15.64
2024-02-17T20:51:17.868Z,15.61
2024-02-17T20:53:47.009Z,15.58
2024-02-17T20:56:15.212Z,15.58
2024-02-17T20:58:42.846Z,15.56
2024-02-17T21:01:10.542Z,15.54
2024-02-17T21:03:38.911Z,15.52
2024-02-17T21:06:07.241Z,15.44
2024-02-17T21:15:11.384Z,15.52
2024-02-17T21:17:39.699Z,15.47
2024-02-17T21:20:08.820Z,15.44
2024-02-17T21:22:36.279Z,15.41
2024-02-17T21:25:04.146Z,15.39
2024-02-17T21:27:32.054Z,15.39
2024-02-17T21:30:00.055Z,15.39
2024-02-17T21:32:27.634Z,15.42
2024-02-17T21:34:55.374Z,15.46
2024-02-17T21:37:22.902Z,15.48
2024-02-17T21:39:51.931Z,15.48
2024-02-17T21:42:19.749Z,15.44
2024-02-17T21:44:47.239Z,15.40
2024-02-17T21:47:16.311Z,15.34
2024-02-17T21:49:43.888Z,15.27
2024-02-17T21:52:11.564Z,15.18
2024-02-17T22:02:18.909Z,15.29
2024-02-17T22:04:46.650Z,15.27
2024-02-17T22:07:14.348Z,15.27
2024-02-17T22:09:41.919Z,15.23
2024-02-17T22:12:09.459Z,15.19
2024-02-17T22:14:36.882Z,15.16
2024-02-17T22:17:05.024Z,15.13
2024-02-17T22:26:37.786Z,15.32
2024-02-17T22:29:05.770Z,15.27
2024-02-17T22:31:34.865Z,15.23
2024-02-17T22:34:02.646Z,15.20
2024-02-17T22:36:30.310Z,15.17
2024-02-17T22:38:57.011Z,15.15
2024-02-17T22:41:23.877Z,15.13
2024-02-17T22:43:50.724Z,15.16
2024-02-17T22:46:17.564Z,15.18
2024-02-17T22:48:44.501Z,15.20
2024-02-17T22:51:11.361Z,15.17
2024-02-17T22:53:37.919Z,15.13
2024-02-17T22:56:06.364Z,15.10
2024-02-17T22:58:33.817Z,15.06
2024-02-17T23:01:00.564Z,15.04
2024-02-17T23:03:27.561Z,15.04
2024-02-17T23:05:54.578Z,15.06
2024-02-17T23:08:21.267Z,15.10
2024-02-17T23:10:49.286Z,15.13
2024-02-17T23:13:16.240Z,15.14
2024-02-17T23:15:43.925Z,15.09
2024-02-17T23:18:10.623Z,15.05
2024-02-17T23:20:37.463Z,14.99
2024-02-17T23:23:11.983Z,14.95
2024-02-17T23:25:42.156Z,14.91
2024-02-17T23:28:09.157Z,14.91
2024-02-17T23:30:35.872Z,14.93
2024-02-17T23:33:02.948Z,14.96
2024-02-17T23:35:29.868Z,15.00
2024-02-17T23:37:56.494Z,15.00
2024-02-17T23:40:24.943Z,15.01
2024-02-17T23:42:51.653Z,14.99
2024-02-17T23:45:18.590Z,14.96
2024-02-17T23:47:45.653Z,14.94
2024-02-17T23:50:12.441Z,14.96
2024-02-17T23:52:39.276Z,14.98
2024-02-17T23:55:07.384Z,15.01
2024-02-17T23:57:34.844Z,15.02
